Aviation Digital Data Service (ADDS)

Output produced by METARs form (2105 UTC 31 January 2023)
found at http://www.aviationweather.gov/metar/data/
 
KDAB 312053Z 07007KT 10SM FEW060 24/19 A3013 RMK AO2 SLP203 T02440194 56018
KDAB 311725Z 3118/0118 23005KT P6SM SCT030 BKN050 
     FM312000 11008KT P6SM SCT035 
     FM010130 VRB03KT P6SM SCT030 SCT250 
     TEMPO 0110/0113 3SM BR SCT010 
     FM011400 24005KT P6SM SCT030 
     FM011700 24008KT P6SM SCT040 SCT120